Time;durP1;ratioP1;P1;durP2;ratioP2;P2;SDS_P1;SDS_P2;PMS_P1;PMS_P2;Temp;Humidity;BMP_temperature;BMP_pressure;BME280_temperature;BME280_humidity;BME280_pressure;Samples;Min_cycle;Max_cycle;Signal;HPM_P1;HPM_P2
2022/07/07 00:01:26;;;;;;;7.47;5.47;;;16.10;99.90;;;;;;6185309;23;20458;-83
2022/07/07 00:03:53;;;;;;;9.65;5.28;;;16.10;99.90;;;;;;6238683;23;20074;-83
2022/07/07 00:06:19;;;;;;;18.88;5.50;;;16.10;99.90;;;;;;6210806;23;20052;-82
2022/07/07 00:08:47;;;;;;;12.10;5.80;;;16.10;99.90;;;;;;6212518;23;20521;-81
2022/07/07 00:11:15;;;;;;;10.70;5.03;;;16.10;99.90;;;;;;6212007;23;20146;-81
2022/07/07 00:13:41;;;;;;;10.90;5.65;;;16.10;99.90;;;;;;6212718;23;20371;-82
2022/07/07 00:16:07;;;;;;;10.40;5.90;;;16.10;99.90;;;;;;6186585;23;20162;-80
2022/07/07 00:18:34;;;;;;;12.57;5.15;;;16.10;99.90;;;;;;6237404;23;20028;-81
2022/07/07 00:21:00;;;;;;;9.55;4.93;;;16.10;99.90;;;;;;6212188;23;20074;-83
2022/07/07 00:23:26;;;;;;;10.93;5.47;;;16.10;99.90;;;;;;6236331;23;20017;-84
2022/07/07 00:25:52;;;;;;;7.65;4.97;;;16.10;99.90;;;;;;6188326;23;20016;-80
2022/07/07 00:28:18;;;;;;;13.32;5.25;;;16.10;99.90;;;;;;6236330;23;20023;-84
2022/07/07 00:30:43;;;;;;;7.53;4.47;;;16.10;99.90;;;;;;6212852;23;20016;-84
2022/07/07 00:33:09;;;;;;;7.97;4.75;;;16.20;99.90;;;;;;6236235;23;20016;-81
2022/07/07 00:35:35;;;;;;;8.50;5.00;;;16.10;99.90;;;;;;6237727;23;20457;-82
2022/07/07 00:38:01;;;;;;;5.78;4.28;;;16.20;99.90;;;;;;6236974;23;20027;-79
2022/07/07 00:40:27;;;;;;;7.43;5.03;;;16.20;99.90;;;;;;6211609;23;20012;-82
2022/07/07 00:42:53;;;;;;;8.88;4.63;;;16.20;99.90;;;;;;6238060;23;20779;-81
2022/07/07 00:45:18;;;;;;;6.07;4.22;;;16.20;99.90;;;;;;6185616;23;20489;-83
2022/07/07 00:47:44;;;;;;;7.88;3.85;;;16.20;99.90;;;;;;6212870;23;20016;-82
2022/07/07 00:50:11;;;;;;;12.35;3.80;;;16.20;99.90;;;;;;6235532;23;20055;-84
2022/07/07 00:52:37;;;;;;;9.88;3.72;;;16.20;99.90;;;;;;6263323;22;20024;-81
2022/07/07 00:55:05;;;;;;;10.45;3.50;;;16.20;99.90;;;;;;6211257;23;20150;-80
2022/07/07 00:57:32;;;;;;;7.35;3.00;;;16.20;99.90;;;;;;6211695;23;20498;-82
2022/07/07 01:00:00;;;;;;;7.40;3.08;;;16.20;99.90;;;;;;6187412;23;20016;-81
2022/07/07 01:02:30;;;;;;;5.72;2.97;;;16.20;99.90;;;;;;6236038;23;20012;-85
2022/07/07 01:05:01;;;;;;;4.00;2.05;;;16.20;99.90;;;;;;6237997;22;20016;-84
2022/07/07 01:07:28;;;;;;;3.38;1.85;;;16.20;99.90;;;;;;6236397;23;20661;-84
2022/07/07 01:09:56;;;;;;;2.00;1.13;;;16.10;99.90;;;;;;6237426;23;20048;-85
2022/07/07 01:12:22;;;;;;;2.05;1.10;;;16.10;99.90;;;;;;6236248;22;20016;-86
2022/07/07 01:14:48;;;;;;;1.48;0.75;;;16.00;99.90;;;;;;6187130;23;20020;-85
2022/07/07 01:17:14;;;;;;;1.15;0.82;;;15.90;99.90;;;;;;6186443;23;20066;-87
2022/07/07 01:19:40;;;;;;;1.67;0.80;;;15.90;99.90;;;;;;6211018;23;20482;-86
2022/07/07 01:22:14;;;;;;;4.97;0.82;;;15.90;99.90;;;;;;6186825;23;20024;-87
2022/07/07 01:24:40;;;;;;;1.23;0.88;;;15.80;99.90;;;;;;6185692;23;20016;-85
2022/07/07 01:27:15;;;;;;;2.20;1.00;;;15.80;99.90;;;;;;6186405;23;20035;-88
2022/07/07 01:29:46;;;;;;;1.70;1.00;;;15.80;99.90;;;;;;6211525;23;20451;-86
2022/07/07 01:32:12;;;;;;;2.58;0.95;;;15.80;99.90;;;;;;6185094;23;20103;-87
2022/07/07 01:34:39;;;;;;;3.33;1.10;;;15.80;99.90;;;;;;6187238;23;20024;-85
2022/07/07 01:37:06;;;;;;;2.92;1.10;;;15.80;99.90;;;;;;6210166;23;20344;-85
2022/07/07 01:39:32;;;;;;;4.13;1.20;;;15.80;99.90;;;;;;6237368;23;20023;-84
2022/07/07 01:41:58;;;;;;;2.83;1.23;;;15.80;99.90;;;;;;6235731;23;20049;-83
2022/07/07 01:44:23;;;;;;;2.30;0.98;;;15.80;99.90;;;;;;6211745;23;20351;-86
2022/07/07 01:46:50;;;;;;;5.18;1.52;;;15.80;99.90;;;;;;6185634;23;20383;-82
2022/07/07 01:49:16;;;;;;;1.70;0.80;;;15.80;99.90;;;;;;6236421;22;20020;-81
2022/07/07 01:51:43;;;;;;;6.60;1.45;;;15.80;99.90;;;;;;6211742;23;20046;-83
2022/07/07 01:54:09;;;;;;;2.25;1.23;;;15.80;99.90;;;;;;6159497;23;20548;-82
2022/07/07 01:56:35;;;;;;;2.80;1.70;;;15.80;99.90;;;;;;6186916;23;20059;-83
2022/07/07 01:59:01;;;;;;;2.50;1.30;;;15.80;99.90;;;;;;6160656;23;20026;-86
2022/07/07 02:01:27;;;;;;;3.42;1.67;;;15.80;99.90;;;;;;6210153;23;20016;-83
2022/07/07 02:03:53;;;;;;;7.00;1.60;;;15.80;99.90;;;;;;6160739;23;20208;-85
2022/07/07 02:06:18;;;;;;;6.13;1.63;;;15.80;99.90;;;;;;6161573;23;20451;-89
2022/07/07 02:08:44;;;;;;;8.55;2.22;;;15.80;99.90;;;;;;6186258;23;20023;-86
2022/07/07 02:11:13;;;;;;;2.92;1.40;;;15.80;99.90;;;;;;6185389;23;20308;-88
2022/07/07 02:13:40;;;;;;;4.55;1.80;;;15.80;99.90;;;;;;6162409;23;20103;-82
2022/07/07 02:16:06;;;;;;;7.90;2.10;;;15.80;99.90;;;;;;6209531;23;20020;-86
2022/07/07 02:18:37;;;;;;;8.00;1.70;;;15.80;99.90;;;;;;6187077;23;20099;-83
2022/07/07 02:21:04;;;;;;;6.03;1.67;;;15.80;99.90;;;;;;6185278;23;20059;-85
2022/07/07 02:23:31;;;;;;;5.28;2.15;;;15.80;99.90;;;;;;6186431;23;20071;-83
2022/07/07 02:25:57;;;;;;;5.95;1.95;;;15.80;99.90;;;;;;6211053;23;20020;-85
2022/07/07 02:28:23;;;;;;;8.13;2.03;;;15.80;99.90;;;;;;6185804;23;20024;-81
2022/07/07 02:30:53;;;;;;;9.68;2.20;;;15.80;99.90;;;;;;6211381;23;20547;-82
2022/07/07 02:33:19;;;;;;;;;;;15.80;99.90;;;;;;6185181;23;20016;-84
2022/07/07 02:35:45;;;;;;;7.60;1.63;;;15.70;99.90;;;;;;6211758;23;20356;-85
2022/07/07 02:38:11;;;;;;;3.38;0.90;;;15.70;99.90;;;;;;6209849;23;20020;-80
2022/07/07 02:40:36;;;;;;;5.15;1.15;;;15.70;99.90;;;;;;6186624;23;20661;-81
2022/07/07 02:43:02;;;;;;;3.55;1.23;;;15.60;99.90;;;;;;6185053;23;20016;-85
2022/07/07 02:45:28;;;;;;;3.58;1.17;;;15.60;99.90;;;;;;6210702;23;20410;-85
2022/07/07 02:47:54;;;;;;;4.82;1.05;;;15.60;99.90;;;;;;6210983;23;20023;-81
2022/07/07 02:50:20;;;;;;;4.90;1.10;;;15.60;99.90;;;;;;6209436;23;20020;-83
2022/07/07 02:52:47;;;;;;;2.92;1.15;;;15.60;99.90;;;;;;6187110;23;20020;-82
2022/07/07 02:55:13;;;;;;;7.30;1.40;;;15.60;99.90;;;;;;6184413;23;20078;-84
2022/07/07 02:57:39;;;;;;;13.77;1.80;;;15.70;99.90;;;;;;6210970;23;20070;-85
2022/07/07 03:00:07;;;;;;;8.90;1.38;;;15.70;99.90;;;;;;6184631;23;20490;-83
2022/07/07 03:02:32;;;;;;;9.02;1.65;;;15.70;99.90;;;;;;6161176;23;20901;-82
2022/07/07 03:04:58;;;;;;;3.72;1.10;;;15.70;99.90;;;;;;6210040;23;20020;-85
2022/07/07 03:07:24;;;;;;;8.07;2.42;;;15.80;99.90;;;;;;6185268;23;20463;-84
2022/07/07 03:09:50;;;;;;;7.93;1.80;;;15.70;99.90;;;;;;6236748;22;20023;-88
2022/07/07 03:12:15;;;;;;;6.82;1.40;;;15.80;99.90;;;;;;6209606;23;20431;-84
2022/07/07 03:14:41;;;;;;;6.72;1.55;;;15.80;99.90;;;;;;6189974;23;20032;-84
2022/07/07 03:17:07;;;;;;;7.68;1.50;;;15.80;99.90;;;;;;6213099;22;20027;-82
2022/07/07 03:19:34;;;;;;;8.68;1.50;;;15.80;99.90;;;;;;6188678;23;20098;-88
2022/07/07 03:22:01;;;;;;;6.07;1.48;;;15.80;99.90;;;;;;6238753;23;20111;-84
2022/07/07 03:24:29;;;;;;;8.15;1.65;;;15.80;99.90;;;;;;6238884;23;20043;-85
2022/07/07 03:26:55;;;;;;;10.38;2.08;;;15.80;99.90;;;;;;6189818;23;20070;-85
2022/07/07 03:29:21;;;;;;;6.03;1.45;;;15.80;99.90;;;;;;6212500;23;20122;-87
2022/07/07 03:31:47;;;;;;;8.93;2.45;;;15.70;99.90;;;;;;6239778;22;20020;-81
2022/07/07 03:34:13;;;;;;;7.72;1.90;;;15.80;99.90;;;;;;6238439;23;20024;-81
2022/07/07 03:36:38;;;;;;;4.88;1.70;;;15.70;99.90;;;;;;6240074;23;20012;-78
2022/07/07 03:39:05;;;;;;;7.68;2.47;;;15.60;99.90;;;;;;6213106;23;20024;-81
2022/07/07 03:41:31;;;;;;;5.13;1.45;;;15.60;99.90;;;;;;6189700;23;20016;-79
2022/07/07 03:43:56;;;;;;;12.90;2.55;;;15.60;99.90;;;;;;6239228;23;20099;-79
2022/07/07 03:46:22;;;;;;;9.98;2.33;;;15.50;99.90;;;;;;6238937;23;20027;-81
2022/07/07 03:48:48;;;;;;;11.73;3.28;;;15.50;99.90;;;;;;6214672;23;20016;-81
2022/07/07 03:51:14;;;;;;;9.02;2.70;;;15.50;99.90;;;;;;6238507;23;20063;-80
2022/07/07 03:53:39;;;;;;;14.13;3.88;;;15.50;99.90;;;;;;6239586;23;20012;-82
2022/07/07 03:56:05;;;;;;;18.60;4.45;;;15.50;99.90;;;;;;6238282;23;20079;-82
2022/07/07 03:58:31;;;;;;;19.02;3.90;;;15.50;99.90;;;;;;6189213;23;20024;-81
2022/07/07 04:00:59;;;;;;;12.65;3.22;;;15.50;99.90;;;;;;6188513;23;20020;-81
2022/07/07 04:03:25;;;;;;;11.73;2.78;;;15.40;99.90;;;;;;6239064;23;20474;-81
2022/07/07 04:05:52;;;;;;;11.68;3.05;;;15.40;99.90;;;;;;6239764;23;20020;-81
2022/07/07 04:08:17;;;;;;;15.25;3.35;;;15.40;99.90;;;;;;6238725;23;20020;-83
2022/07/07 04:10:43;;;;;;;8.20;2.08;;;15.40;99.90;;;;;;6214307;23;20069;-80
2022/07/07 04:13:09;;;;;;;11.75;3.10;;;15.40;99.90;;;;;;6238975;23;20035;-80
2022/07/07 04:15:35;;;;;;;11.23;3.00;;;15.40;99.90;;;;;;6239949;23;20030;-81
2022/07/07 04:18:01;;;;;;;11.93;2.70;;;15.50;99.90;;;;;;6238427;23;20024;-82
2022/07/07 04:20:29;;;;;;;10.13;3.75;;;15.50;99.90;;;;;;6239865;23;20019;-81
2022/07/07 04:22:56;;;;;;;7.45;2.53;;;15.40;99.90;;;;;;6238665;22;20091;-80
2022/07/07 04:25:22;;;;;;;8.85;3.35;;;15.40;99.90;;;;;;6211693;23;20027;-80
2022/07/07 04:27:48;;;;;;;18.55;4.25;;;15.40;99.90;;;;;;6238358;23;20016;-80
2022/07/07 04:30:14;;;;;;;16.27;3.50;;;15.30;99.90;;;;;;6236826;23;20114;-82
2022/07/07 04:32:39;;;;;;;16.65;4.47;;;15.30;99.90;;;;;;6237439;23;20027;-79
2022/07/07 04:35:06;;;;;;;12.55;2.55;;;15.30;99.90;;;;;;6236312;23;20344;-81
2022/07/07 04:37:32;;;;;;;9.73;1.55;;;15.30;99.90;;;;;;6212369;23;20479;-80
2022/07/07 04:39:57;;;;;;;5.80;1.10;;;15.20;99.90;;;;;;6236711;22;20016;-82
2022/07/07 04:42:23;;;;;;;10.75;1.45;;;15.20;99.90;;;;;;6211686;23;20525;-82
2022/07/07 04:44:49;;;;;;;9.75;2.15;;;15.10;99.90;;;;;;6237309;23;20050;-81
2022/07/07 04:47:15;;;;;;;8.30;2.22;;;15.10;99.90;;;;;;6237332;23;20044;-80
2022/07/07 04:49:40;;;;;;;8.88;2.05;;;15.10;99.90;;;;;;6237014;23;20032;-79
2022/07/07 04:52:06;;;;;;;7.18;1.77;;;15.10;99.90;;;;;;6186482;23;20482;-80
2022/07/07 04:54:32;;;;;;;10.35;1.77;;;15.20;99.90;;;;;;6187063;23;20023;-80
2022/07/07 04:56:58;;;;;;;12.05;1.60;;;15.00;99.90;;;;;;6186126;23;20036;-81
2022/07/07 04:59:23;;;;;;;12.10;1.80;;;15.00;99.90;;;;;;6237567;23;20103;-79
2022/07/07 05:01:49;;;;;;;9.85;2.10;;;15.00;99.90;;;;;;6211359;22;20020;-82
2022/07/07 05:04:15;;;;;;;14.75;2.38;;;15.10;99.90;;;;;;6187072;23;20400;-81
2022/07/07 05:06:41;;;;;;;11.35;2.67;;;15.10;99.90;;;;;;6237041;23;20251;-82
2022/07/07 05:09:06;;;;;;;11.80;2.58;;;15.00;99.90;;;;;;6211225;23;20094;-80
2022/07/07 05:11:32;;;;;;;9.95;2.40;;;15.10;99.90;;;;;;6187214;23;20048;-81
2022/07/07 05:13:58;;;;;;;12.73;2.20;;;15.10;99.90;;;;;;6210897;23;20024;-80
2022/07/07 05:16:24;;;;;;;14.18;2.83;;;15.10;99.90;;;;;;6212404;23;20019;-81
2022/07/07 05:18:49;;;;;;;21.13;3.33;;;15.10;99.90;;;;;;6211266;23;20455;-80
2022/07/07 05:21:15;;;;;;;19.70;4.07;;;15.10;99.90;;;;;;6237880;23;20075;-78
2022/07/07 05:23:41;;;;;;;15.57;2.88;;;15.10;99.90;;;;;;6185695;23;20415;-81
2022/07/07 05:26:07;;;;;;;19.38;3.35;;;15.10;99.90;;;;;;6212050;23;20052;-79
2022/07/07 05:28:33;;;;;;;15.40;2.90;;;15.10;99.90;;;;;;6237135;23;20024;-82
2022/07/07 05:30:59;;;;;;;13.57;2.80;;;15.00;99.90;;;;;;6236187;23;20023;-80
2022/07/07 05:33:25;;;;;;;14.20;2.90;;;15.00;99.90;;;;;;6237474;23;20327;-80
2022/07/07 05:35:51;;;;;;;13.75;3.00;;;15.10;99.90;;;;;;6186033;23;20016;-80
2022/07/07 05:38:16;;;;;;;9.00;1.83;;;15.10;99.90;;;;;;6187118;23;20158;-81
2022/07/07 05:40:42;;;;;;;8.07;1.90;;;15.10;99.90;;;;;;6185976;23;20046;-82
2022/07/07 05:43:08;;;;;;;11.65;2.17;;;15.10;99.90;;;;;;6212059;23;20016;-80
2022/07/07 05:45:34;;;;;;;7.30;1.92;;;15.20;99.90;;;;;;6236048;23;20020;-81
2022/07/07 05:47:59;;;;;;;10.77;2.03;;;15.10;99.90;;;;;;6236734;22;20062;-80
2022/07/07 05:50:25;;;;;;;12.82;2.35;;;15.10;99.90;;;;;;6236733;23;20020;-79
2022/07/07 05:52:51;;;;;;;7.93;2.17;;;15.20;99.90;;;;;;6186174;23;20024;-78
2022/07/07 05:55:17;;;;;;;17.23;2.35;;;15.30;99.90;;;;;;6211902;23;20020;-77
2022/07/07 05:57:43;;;;;;;13.02;3.55;;;15.20;99.90;;;;;;6209968;23;20095;-79
2022/07/07 06:00:10;;;;;;;9.50;2.10;;;15.30;99.90;;;;;;6236625;23;20020;-78
2022/07/07 06:02:35;;;;;;;13.27;2.10;;;15.30;99.90;;;;;;6185229;23;20013;-78
2022/07/07 06:05:02;;;;;;;8.70;2.42;;;15.30;99.90;;;;;;6186521;23;20043;-78
2022/07/07 06:07:28;;;;;;;13.32;2.80;;;15.30;99.90;;;;;;6236616;23;20023;-78
2022/07/07 06:09:54;;;;;;;12.60;2.05;;;15.30;99.90;;;;;;6185719;23;20020;-79
2022/07/07 06:12:21;;;;;;;11.18;2.33;;;15.30;99.90;;;;;;6187056;23;20016;-79
2022/07/07 06:14:47;;;;;;;16.95;2.30;;;15.30;99.90;;;;;;6235305;23;20262;-78
2022/07/07 06:17:13;;;;;;;15.32;2.58;;;15.30;99.90;;;;;;6186949;23;20292;-78
2022/07/07 06:19:39;;;;;;;12.18;2.40;;;15.40;99.90;;;;;;6235363;22;20020;-81
2022/07/07 06:22:05;;;;;;;11.85;2.40;;;15.40;99.90;;;;;;6211434;23;20020;-77
2022/07/07 06:24:30;;;;;;;15.27;3.25;;;15.40;99.90;;;;;;6210332;23;20020;-78
2022/07/07 06:26:56;;;;;;;8.52;1.95;;;15.30;99.90;;;;;;6236328;23;20020;-79
2022/07/07 06:29:22;;;;;;;5.60;1.85;;;15.30;99.90;;;;;;6211817;23;20016;-78
2022/07/07 06:31:48;;;;;;;10.13;2.30;;;15.30;99.90;;;;;;6235507;23;20016;-78
2022/07/07 06:34:13;;;;;;;16.90;2.67;;;15.30;99.90;;;;;;6237181;23;20030;-78
2022/07/07 06:36:39;;;;;;;13.63;2.33;;;15.20;99.90;;;;;;6184594;23;20415;-77
2022/07/07 06:39:05;;;;;;;9.43;2.58;;;15.20;99.90;;;;;;6237045;22;20024;-77
2022/07/07 06:41:35;;;;;;;10.30;2.65;;;15.20;99.90;;;;;;6209159;23;20031;-78
2022/07/07 06:44:02;;;;;;;10.73;1.95;;;15.30;99.90;;;;;;6211341;23;20024;-76
2022/07/07 06:46:28;;;;;;;9.18;2.58;;;15.30;99.90;;;;;;6211272;23;20055;-77
2022/07/07 06:48:54;;;;;;;8.35;1.83;;;15.40;99.90;;;;;;6184659;23;20070;-75
2022/07/07 06:51:20;;;;;;;10.32;1.92;;;15.40;99.90;;;;;;6236429;23;20020;-77
2022/07/07 06:53:45;;;;;;;9.18;2.05;;;15.50;99.90;;;;;;6184538;23;20099;-76
2022/07/07 06:56:11;;;;;;;11.30;2.28;;;15.60;99.90;;;;;;6236268;23;20016;-77
2022/07/07 06:58:37;;;;;;;9.60;1.70;;;15.60;99.90;;;;;;6209829;23;20020;-76
2022/07/07 07:01:03;;;;;;;9.73;2.00;;;15.60;99.90;;;;;;6236597;23;20077;-76
2022/07/07 07:03:29;;;;;;;10.40;2.25;;;15.70;99.90;;;;;;6236008;23;20127;-76
2022/07/07 07:05:54;;;;;;;9.93;2.25;;;15.70;99.90;;;;;;6235151;22;20016;-78
2022/07/07 07:08:20;;;;;;;10.77;2.60;;;15.70;99.90;;;;;;6211140;22;20016;-77
2022/07/07 07:10:46;;;;;;;12.95;2.17;;;15.60;99.90;;;;;;6209852;23;20016;-76
2022/07/07 07:13:12;;;;;;;10.07;2.22;;;15.60;99.90;;;;;;6236891;23;20447;-76
2022/07/07 07:15:39;;;;;;;9.95;1.85;;;15.60;99.90;;;;;;6234657;23;20020;-75
2022/07/07 07:18:08;;;;;;;7.00;1.90;;;15.70;99.90;;;;;;6211787;23;20020;-76
2022/07/07 07:20:35;;;;;;;11.95;1.83;;;15.70;99.90;;;;;;6234499;23;20027;-74
2022/07/07 07:23:01;;;;;;;12.00;2.53;;;15.80;99.90;;;;;;6236437;23;20095;-76
2022/07/07 07:25:27;;;;;;;10.23;2.03;;;16.00;99.90;;;;;;6236563;23;20035;-76
2022/07/07 07:27:52;;;;;;;12.15;2.05;;;16.20;99.90;;;;;;6209790;23;20408;-75
2022/07/07 07:30:19;;;;;;;11.77;2.83;;;16.30;99.90;;;;;;6186728;23;20094;-76
2022/07/07 07:32:45;;;;;;;10.10;2.17;;;16.50;99.90;;;;;;6234474;23;20135;-75
2022/07/07 07:35:11;;;;;;;8.18;2.33;;;16.70;99.90;;;;;;6186150;23;20059;-74
2022/07/07 07:37:39;;;;;;;8.07;2.10;;;16.60;99.90;;;;;;6234330;23;20023;-74
2022/07/07 07:40:10;;;;;;;11.95;2.20;;;16.50;99.90;;;;;;6232686;23;20020;-75
2022/07/07 07:42:37;;;;;;;6.47;1.55;;;16.30;99.90;;;;;;6232337;23;20023;-75
2022/07/07 07:45:10;;;;;;;9.90;1.63;;;16.50;99.90;;;;;;6231990;23;20669;-74
2022/07/07 07:47:43;;;;;;;3.53;1.40;;;16.60;99.90;;;;;;6233457;23;20402;-74
2022/07/07 07:50:12;;;;;;;6.38;1.33;;;16.70;99.90;;;;;;6207123;23;20086;-75
2022/07/07 07:52:41;;;;;;;10.73;1.67;;;16.70;99.90;;;;;;6206039;23;20024;-74
2022/07/07 07:55:09;;;;;;;10.82;1.65;;;16.60;99.90;;;;;;6234516;23;20047;-75
2022/07/07 07:57:36;;;;;;;12.65;1.52;;;16.50;99.90;;;;;;6235970;23;20012;-75
2022/07/07 08:00:08;;;;;;;16.50;1.83;;;16.30;99.90;;;;;;6186691;23;20028;-75
2022/07/07 08:02:34;;;;;;;4.57;0.75;;;16.20;99.90;;;;;;6236716;23;20024;-74
2022/07/07 08:05:01;;;;;;;7.88;1.13;;;16.20;99.90;;;;;;6237647;23;20024;-75
2022/07/07 08:07:27;;;;;;;4.32;1.35;;;16.30;99.90;;;;;;6236221;23;20016;-74
2022/07/07 08:09:53;;;;;;;2.65;0.60;;;16.50;99.90;;;;;;6237120;23;20166;-74
2022/07/07 08:12:19;;;;;;;3.33;0.82;;;16.70;99.90;;;;;;6236709;23;20051;-73
2022/07/07 08:14:45;;;;;;;4.68;0.82;;;16.90;99.90;;;;;;6236829;22;20027;-74
2022/07/07 08:17:11;;;;;;;8.10;1.00;;;17.10;99.90;;;;;;6211814;23;20088;-73
2022/07/07 08:19:36;;;;;;;5.40;1.30;;;17.40;99.90;;;;;;6209777;23;20024;-73
2022/07/07 08:22:02;;;;;;;5.05;0.70;;;17.40;99.90;;;;;;6234608;23;20490;-72
2022/07/07 08:24:28;;;;;;;3.72;1.00;;;17.30;99.90;;;;;;6233721;23;20055;-72
2022/07/07 08:26:55;;;;;;;3.53;1.10;;;17.20;99.90;;;;;;6235045;23;20364;-73
2022/07/07 08:29:21;;;;;;;7.05;1.05;;;17.20;99.90;;;;;;6233708;23;20030;-72
2022/07/07 08:31:47;;;;;;;9.13;1.45;;;17.10;99.90;;;;;;6234679;23;20024;-72
2022/07/07 08:34:13;;;;;;;6.10;1.27;;;17.00;99.90;;;;;;6236790;23;20098;-72
2022/07/07 08:36:39;;;;;;;7.38;1.60;;;16.80;99.90;;;;;;6236706;23;20024;-73
2022/07/07 08:39:05;;;;;;;9.27;1.20;;;16.70;99.90;;;;;;6237153;23;20070;-71
2022/07/07 08:41:31;;;;;;;5.15;1.30;;;16.60;99.90;;;;;;6236570;23;20024;-71
2022/07/07 08:43:59;;;;;;;7.70;1.70;;;16.60;99.90;;;;;;6236901;23;20109;-71
2022/07/07 08:46:24;;;;;;;5.82;0.95;;;16.80;99.90;;;;;;6235794;23;20027;-72
2022/07/07 08:48:52;;;;;;;3.30;1.20;;;17.20;99.90;;;;;;6236834;23;20023;-71
2022/07/07 08:51:20;;;;;;;5.47;1.35;;;17.50;99.90;;;;;;6236516;23;20020;-71
2022/07/07 08:53:46;;;;;;;4.75;1.25;;;17.50;99.90;;;;;;6233616;23;20023;-71
2022/07/07 08:56:14;;;;;;;8.52;1.35;;;17.40;99.90;;;;;;6234783;23;20046;-70
2022/07/07 08:58:41;;;;;;;7.03;1.08;;;17.40;99.90;;;;;;6233540;23;20052;-70
2022/07/07 09:01:07;;;;;;;6.95;1.20;;;17.50;99.90;;;;;;6210568;23;20017;-70
2022/07/07 09:03:34;;;;;;;14.85;2.65;;;17.70;99.90;;;;;;6237761;23;20101;-70
2022/07/07 09:06:00;;;;;;;5.35;1.67;;;17.60;99.90;;;;;;6211730;23;20394;-70
2022/07/07 09:08:29;;;;;;;8.07;1.63;;;17.60;99.90;;;;;;6210250;23;20028;-70
2022/07/07 09:10:56;;;;;;;6.63;1.40;;;17.40;99.90;;;;;;6237946;23;20541;-70
2022/07/07 09:13:26;;;;;;;9.88;1.58;;;17.50;99.90;;;;;;6238689;23;20732;-70
2022/07/07 09:15:54;;;;;;;6.22;1.50;;;17.60;99.90;;;;;;6236226;23;20016;-70
2022/07/07 09:18:32;;;;;;;12.00;1.70;;;18.00;99.90;;;;;;6238815;23;20451;-70
2022/07/07 09:20:59;;;;;;;9.25;1.52;;;18.40;99.90;;;;;;6236079;23;20339;-70
2022/07/07 09:23:26;;;;;;;10.85;1.90;;;18.70;99.90;;;;;;6237267;23;20020;-71
2022/07/07 09:25:52;;;;;;;8.13;1.13;;;18.60;99.90;;;;;;6235633;23;20467;-70
2022/07/07 09:28:18;;;;;;;9.20;1.85;;;18.20;99.90;;;;;;6211401;23;20028;-70
2022/07/07 09:30:46;;;;;;;15.43;2.47;;;17.80;99.90;;;;;;6236744;23;20099;-69
2022/07/07 09:33:23;;;;;;;7.80;1.88;;;17.60;99.90;;;;;;6235985;23;20070;-70
2022/07/07 09:38:36;;;;;;;13.02;1.48;;;17.70;99.90;;;;;;6235567;23;20350;-69
2022/07/07 09:41:08;;;;;;;10.68;2.35;;;17.90;99.90;;;;;;6238716;23;20374;-69
2022/07/07 09:43:53;;;;;;;10.82;1.92;;;18.00;99.90;;;;;;6236656;23;20028;-68
2022/07/07 09:46:21;;;;;;;7.03;1.45;;;17.90;99.90;;;;;;6233559;23;20095;-69
2022/07/07 09:48:55;;;;;;;8.20;1.75;;;17.50;99.90;;;;;;6235501;23;20024;-69
2022/07/07 09:51:24;;;;;;;4.55;1.30;;;17.20;99.90;;;;;;6234648;23;20089;-69
2022/07/07 09:54:00;;;;;;;9.27;2.15;;;17.10;99.90;;;;;;6235789;23;20020;-69
2022/07/07 09:56:30;;;;;;;6.15;1.98;;;17.10;99.90;;;;;;6235675;23;20395;-69
2022/07/07 09:58:58;;;;;;;5.55;1.33;;;17.10;99.90;;;;;;6236800;22;20312;-68
2022/07/07 10:01:26;;;;;;;8.77;2.05;;;17.10;99.90;;;;;;6236139;23;20095;-69
2022/07/07 10:03:55;;;;;;;7.93;2.08;;;17.10;99.90;;;;;;6234122;23;20024;-69
2022/07/07 10:06:21;;;;;;;7.47;1.88;;;17.20;99.90;;;;;;6235967;23;20524;-69
2022/07/07 10:08:54;;;;;;;11.45;2.10;;;17.20;99.90;;;;;;6234733;23;20024;-68
2022/07/07 10:11:21;;;;;;;11.38;2.60;;;16.90;99.90;;;;;;6238160;23;20009;-69
2022/07/07 10:13:49;;;;;;;11.25;2.30;;;16.50;99.90;;;;;;6236601;23;20013;-69
2022/07/07 10:16:15;;;;;;;14.13;2.20;;;16.20;99.90;;;;;;6235970;23;20054;-69
2022/07/07 10:18:43;;;;;;;10.80;2.33;;;16.10;99.90;;;;;;6236318;23;20096;-68
2022/07/07 10:21:09;;;;;;;16.45;2.35;;;16.10;99.90;;;;;;6236416;23;20338;-68
2022/07/07 10:23:35;;;;;;;13.75;2.97;;;16.20;99.90;;;;;;6261876;22;20047;-68
2022/07/07 10:26:07;;;;;;;18.67;3.08;;;16.30;99.90;;;;;;6234783;23;20020;-68
2022/07/07 10:28:55;;;;;;;15.45;2.33;;;16.40;99.90;;;;;;6238425;23;20028;-69
2022/07/07 10:31:24;;;;;;;16.88;3.20;;;16.80;99.90;;;;;;6236519;23;20047;-69
2022/07/07 10:34:09;;;;;;;12.20;3.10;;;17.00;99.90;;;;;;6237697;23;20055;-68
2022/07/07 10:37:02;;;;;;;19.08;3.90;;;17.10;99.90;;;;;;6236308;23;20412;-68
2022/07/07 10:39:32;;;;;;;14.18;4.07;;;16.90;99.90;;;;;;6232784;23;20404;-68
2022/07/07 10:42:26;;;;;;;13.52;3.53;;;17.00;99.90;;;;;;6237908;23;20031;-68
2022/07/07 10:44:56;;;;;;;18.52;3.53;;;17.00;99.90;;;;;;6204943;23;20027;-69
2022/07/07 10:47:22;;;;;;;;;;;16.90;99.90;;;;;;6235710;23;20020;-68
2022/07/07 10:49:51;;;;;;;33.47;4.80;;;16.80;99.90;;;;;;6210976;23;19990;-68
2022/07/07 10:52:22;;;;;;;26.00;4.82;;;16.70;99.90;;;;;;6237396;23;20020;-68
2022/07/07 10:54:53;;;;;;;23.63;4.55;;;16.60;99.90;;;;;;6237759;23;20052;-68
2022/07/07 10:57:21;;;;;;;38.25;5.03;;;16.50;99.90;;;;;;6238231;23;20081;-68
2022/07/07 11:00:00;;;;;;;20.73;3.92;;;16.50;99.90;;;;;;6234747;23;20078;-68
2022/07/07 11:02:33;;;;;;;17.83;2.97;;;16.50;99.90;;;;;;6259861;22;20024;-68
2022/07/07 11:05:00;;;;;;;16.85;3.55;;;16.60;99.90;;;;;;6231333;23;20026;-68
2022/07/07 11:07:28;;;;;;;12.82;2.67;;;16.80;99.90;;;;;;6259407;22;20142;-67
2022/07/07 11:10:06;;;;;;;17.83;3.05;;;16.90;99.90;;;;;;6259002;22;20028;-67
2022/07/07 11:12:44;;;;;;;17.83;2.83;;;16.90;99.90;;;;;;6237117;23;20095;-68
2022/07/07 11:15:22;;;;;;;13.82;2.47;;;16.90;99.90;;;;;;6235086;23;20023;-67
2022/07/07 11:17:57;;;;;;;14.70;2.33;;;16.90;99.90;;;;;;6235092;23;20023;-68
2022/07/07 11:20:30;;;;;;;14.63;2.22;;;16.90;99.90;;;;;;6237949;23;20024;-67
2022/07/07 11:23:12;;;;;;;13.75;2.88;;;16.70;99.10;;;;;;6235305;23;20016;-68
2022/07/07 11:25:40;;;;;;;13.18;2.78;;;16.70;99.90;;;;;;6258541;22;20086;-67
2022/07/07 11:28:07;;;;;;;12.15;2.67;;;16.70;99.40;;;;;;6235145;23;20051;-68
2022/07/07 11:30:33;;;;;;;17.15;3.47;;;16.70;99.90;;;;;;6233852;23;20024;-68
2022/07/07 11:33:01;;;;;;;17.45;2.92;;;16.60;99.90;;;;;;6234769;23;20021;-68
2022/07/07 11:35:36;;;;;;;20.40;3.40;;;16.50;99.90;;;;;;6236941;23;20070;-68
2022/07/07 11:38:02;;;;;;;16.85;3.00;;;16.50;99.90;;;;;;6239009;23;20019;-68
2022/07/07 11:40:28;;;;;;;15.80;3.35;;;16.50;99.90;;;;;;6238228;23;20091;-68
2022/07/07 11:42:54;;;;;;;18.55;3.20;;;16.50;99.90;;;;;;6239140;23;20051;-68
2022/07/07 11:45:23;;;;;;;19.27;3.80;;;16.60;99.90;;;;;;6239212;22;20023;-68
2022/07/07 11:47:50;;;;;;;23.52;4.10;;;16.50;99.90;;;;;;6236448;23;20078;-68
2022/07/07 11:50:17;;;;;;;17.45;3.97;;;16.50;99.90;;;;;;6239038;23;20063;-69
2022/07/07 11:52:52;;;;;;;18.98;3.67;;;16.50;99.90;;;;;;6212056;23;20070;-68
2022/07/07 11:55:19;;;;;;;22.30;4.00;;;16.50;99.90;;;;;;6212109;23;20056;-68
2022/07/07 11:57:52;;;;;;;13.13;2.80;;;16.60;99.90;;;;;;6239342;23;20017;-69
2022/07/07 12:00:20;;;;;;;21.35;3.40;;;16.60;99.90;;;;;;6185233;23;20031;-68
2022/07/07 12:02:48;;;;;;;16.00;3.05;;;16.70;99.80;;;;;;6212251;23;20031;-68
2022/07/07 12:05:22;;;;;;;22.13;3.25;;;16.70;96.90;;;;;;6237753;23;20347;-69
2022/07/07 12:08:00;;;;;;;15.43;3.13;;;16.80;98.50;;;;;;6212867;23;20023;-69
2022/07/07 12:10:31;;;;;;;15.95;3.13;;;16.80;98.40;;;;;;6238595;23;20088;-68
2022/07/07 12:13:10;;;;;;;17.42;3.38;;;16.90;93.30;;;;;;6239691;23;20012;-70
2022/07/07 12:15:44;;;;;;;;;;;16.90;98.00;;;;;;6242125;23;20024;-70
2022/07/07 12:18:11;;;;;;;15.40;3.65;;;17.00;99.90;;;;;;6211259;23;19919;-70
2022/07/07 12:20:38;;;;;;;17.58;3.83;;;17.00;97.20;;;;;;6186992;23;20019;-70
2022/07/07 12:23:16;;;;;;;15.18;2.88;;;17.00;94.30;;;;;;6210978;23;20024;-70
2022/07/07 12:25:42;;;;;;;17.58;2.97;;;17.00;98.20;;;;;;6212427;23;20473;-70
2022/07/07 12:28:09;;;;;;;16.27;3.45;;;16.90;97.90;;;;;;6186534;23;20020;-70
2022/07/07 12:30:49;;;;;;;17.25;3.15;;;16.80;99.90;;;;;;6208204;23;20506;-69
2022/07/07 12:33:31;;;;;;;28.48;3.75;;;16.60;99.00;;;;;;6211406;23;20020;-70
2022/07/07 12:35:59;;;;;;;19.77;3.25;;;16.50;99.90;;;;;;6210404;23;20339;-69
2022/07/07 12:38:42;;;;;;;19.08;3.03;;;16.60;99.90;;;;;;6185862;23;20034;-70
2022/07/07 12:41:08;;;;;;;12.82;2.83;;;16.50;99.90;;;;;;6210759;23;20027;-70
2022/07/07 12:43:36;;;;;;;18.83;3.25;;;16.60;99.90;;;;;;6208220;23;20024;-70
2022/07/07 12:46:10;;;;;;;22.73;3.28;;;16.70;99.90;;;;;;6210204;23;20545;-70
2022/07/07 12:48:52;;;;;;;18.30;3.42;;;16.80;99.90;;;;;;6209614;23;20027;-70